Terminal Aerodrome Forecast
Issued by NWS

Home | Current Version | Previous Version | Graphics & Text | Print | Product List | Glossary On
Versions: 1 2 3 4 5 6 7 8 9 10 11 12 13 14 15 16 17 18 19 20 21 22 23 24 25 26
000
FTUS42 KMHX 281725
TAFISO
TAF
KISO 281725Z 2818/2918 22009KT P6SM VCTS SCT030 BKN050CB
      TEMPO 2821/2824 VRB25KT 4SM SHRA BKN030
     FM290300 VRB03KT P6SM BKN030
     FM290800 00000KT 4SM BR BKN007
     FM291300 01004KT P6SM BKN015
     FM291600 01006KT P6SM SCT030
      AMD LTD TO CLD VIS AND WIND=

USA.gov is the U.S. government's official web portal to all federal, state and local government web resources and services.